createdAt,value
2022-11-12T05:01:04.088Z,5.74
2022-11-12T05:03:50.002Z,5.79
2022-11-12T05:06:54.030Z,5.85
2022-11-12T05:09:39.857Z,5.90
2022-11-12T05:12:25.361Z,5.92
2022-11-12T05:15:14.459Z,5.98
2022-11-12T05:17:59.918Z,5.93
2022-11-12T05:20:45.319Z,6.06
2022-11-12T05:23:30.524Z,6.12
2022-11-12T05:26:15.857Z,6.20
2022-11-12T05:29:04.949Z,6.21
2022-11-12T05:31:52.954Z,6.33
2022-11-12T06:44:28.756Z,6.91
2022-11-12T06:47:14.344Z,6.99
2022-11-12T06:49:59.900Z,7.07
2022-11-12T06:52:45.113Z,7.18
2022-11-12T06:55:30.502Z,7.31
2022-11-12T06:58:16.052Z,7.37
2022-11-12T07:01:11.814Z,7.39
2022-11-12T07:03:57.913Z,7.43
2022-11-12T07:06:43.422Z,7.51
2022-11-12T07:09:28.658Z,7.60
2022-11-12T07:12:14.167Z,7.65
2022-11-12T07:14:59.489Z,7.75
2022-11-12T07:17:47.696Z,7.81
2022-11-12T07:20:32.863Z,7.88
2022-11-12T07:23:18.154Z,7.96
2022-11-12T07:26:06.478Z,8.03
2022-11-12T07:28:53.249Z,8.09
2022-11-12T07:31:38.856Z,8.15
2022-11-12T07:34:24.298Z,8.18
2022-11-12T07:37:09.779Z,8.17
2022-11-12T07:39:55.461Z,8.17
2022-11-12T07:42:41.299Z,8.19
2022-11-12T07:45:26.838Z,8.24
2022-11-12T07:48:12.123Z,8.27
2022-11-12T07:51:02.094Z,8.27
2022-11-12T07:53:48.662Z,8.33
2022-11-12T07:56:34.184Z,8.37
2022-11-12T07:59:19.504Z,8.44
2022-11-12T08:02:04.876Z,8.47
2022-11-12T08:04:50.175Z,8.50
2022-11-12T08:07:36.813Z,8.46
2022-11-12T08:10:22.508Z,8.46
2022-11-12T08:13:07.777Z,8.48
2022-11-12T08:15:53.219Z,8.45
2022-11-12T08:18:38.718Z,8.46
2022-11-12T08:21:24.077Z,8.40
2022-11-12T08:24:09.462Z,8.48
2022-11-12T08:26:54.679Z,8.55
2022-11-12T08:29:39.976Z,8.56
2022-11-12T08:32:25.414Z,8.64
2022-11-12T08:35:10.653Z,8.62
2022-11-12T08:38:04.734Z,8.60
2022-11-12T08:40:50.069Z,8.63
2022-11-12T08:43:36.182Z,8.64
2022-11-12T08:46:21.169Z,8.67
2022-11-12T08:49:06.531Z,8.63
2022-11-12T08:51:52.052Z,8.56
2022-11-12T08:54:37.631Z,8.67
2022-11-12T08:57:22.979Z,8.68
2022-11-12T09:00:12.766Z,8.64
2022-11-12T09:03:03.683Z,8.73
2022-11-12T09:05:51.890Z,8.81
2022-11-12T09:08:37.651Z,8.87
2022-11-12T09:11:23.104Z,8.88
2022-11-12T09:14:08.583Z,8.98
2022-11-12T09:16:53.718Z,8.95
2022-11-12T09:19:42.946Z,8.95
2022-11-12T09:22:28.879Z,9.03
2022-11-12T09:25:14.463Z,9.09
2022-11-12T09:28:07.425Z,9.18
2022-11-12T09:30:54.133Z,9.22
2022-11-12T09:33:39.469Z,9.27
2022-11-12T09:36:24.742Z,9.33
2022-11-12T09:39:10.006Z,9.23
2022-11-12T09:42:00.722Z,9.19
2022-11-12T09:44:59.850Z,9.21
2022-11-12T09:47:50.571Z,9.18
2022-11-12T09:50:52.853Z,9.19
2022-11-12T09:54:01.903Z,9.18
2022-11-12T09:56:48.596Z,9.22
2022-11-12T09:59:42.610Z,9.20
2022-11-12T10:02:47.391Z,9.25
2022-11-12T10:05:57.682Z,9.29
2022-11-12T10:08:58.876Z,9.34
2022-11-12T10:12:34.051Z,9.34
2022-11-12T10:15:55.638Z,9.51
2022-11-12T10:18:53.575Z,9.55
2022-11-12T10:22:15.532Z,9.47
2022-11-12T10:25:13.368Z,9.50
2022-11-12T10:27:58.356Z,9.45
2022-11-12T10:30:44.216Z,9.34
2022-11-12T10:33:32.130Z,9.28
2022-11-12T10:36:31.729Z,9.19
2022-11-12T10:39:41.444Z,9.14
2022-11-12T10:42:27.315Z,8.99
2022-11-12T10:45:21.385Z,8.94
2022-11-12T10:48:34.871Z,8.82
2022-11-12T10:51:32.437Z,8.73
2022-11-12T10:54:26.897Z,8.74
2022-11-12T10:57:26.789Z,8.66
2022-11-12T11:00:19.226Z,8.64
2022-11-12T11:03:23.890Z,8.55
2022-11-12T11:06:15.346Z,8.50
2022-11-12T11:09:09.785Z,8.51
2022-11-12T11:11:59.943Z,8.47
2022-11-12T11:14:45.214Z,8.48
2022-11-12T18:37:39.134Z,7.23
2022-11-12T18:40:25.378Z,7.25
2022-11-12T18:43:10.565Z,7.26
2022-11-12T18:45:59.238Z,7.27
2022-11-12T18:48:45.225Z,7.35
2022-11-12T18:51:30.283Z,7.36
2022-11-12T18:54:16.367Z,7.42
2022-11-12T18:57:01.442Z,7.40
2022-11-12T18:59:47.998Z,7.40
2022-11-12T19:02:33.366Z,7.44
2022-11-12T19:05:22.136Z,7.43
2022-11-12T19:08:07.269Z,7.37
2022-11-12T19:11:07.453Z,7.44
